createdAt,value
2017-05-24T00:00:12.343Z,1018.85
2017-05-24T00:01:13.103Z,1018.79
2017-05-24T00:02:13.782Z,1018.78
2017-05-24T00:03:14.464Z,1018.8
2017-05-24T00:04:15.128Z,1018.78
2017-05-24T00:05:15.797Z,1018.8
2017-05-24T00:06:16.474Z,1018.76
2017-05-24T00:07:17.158Z,1018.77
2017-05-24T00:08:17.836Z,1018.72
2017-05-24T00:09:18.504Z,1018.76
2017-05-24T00:10:19.189Z,1018.7
2017-05-24T00:11:19.884Z,1018.7
2017-05-24T00:12:20.555Z,1018.73
2017-05-24T00:13:21.241Z,1018.7
2017-05-24T00:14:21.907Z,1018.76
2017-05-24T00:15:22.606Z,1018.75
2017-05-24T00:16:23.270Z,1018.73
2017-05-24T00:17:23.986Z,1018.71
2017-05-24T00:18:24.734Z,1018.77
2017-05-24T00:19:25.420Z,1018.81
2017-05-24T00:20:26.093Z,1018.77
2017-05-24T00:21:26.767Z,1018.74
2017-05-24T00:22:27.486Z,1018.74
2017-05-24T00:23:28.165Z,1018.75
2017-05-24T00:24:28.843Z,1018.76
2017-05-24T00:25:29.516Z,1018.76
2017-05-24T00:26:30.187Z,1018.7
2017-05-24T00:27:30.866Z,1018.72
2017-05-24T00:28:31.535Z,1018.74
2017-05-24T00:29:32.217Z,1018.73
2017-05-24T00:30:32.885Z,1018.76
2017-05-24T00:31:33.617Z,1018.72
2017-05-24T00:32:34.281Z,1018.73
2017-05-24T00:33:34.952Z,1018.73
2017-05-24T00:34:35.629Z,1018.71
2017-05-24T00:35:36.329Z,1018.69
2017-05-24T00:36:37.018Z,1018.73
2017-05-24T00:37:37.692Z,1018.71
2017-05-24T00:38:38.363Z,1018.72
2017-05-24T00:39:39.038Z,1018.74
2017-05-24T00:40:39.707Z,1018.72
2017-05-24T00:41:40.385Z,1018.71
2017-05-24T00:42:41.054Z,1018.72
2017-05-24T00:43:41.747Z,1018.75
2017-05-24T00:44:42.421Z,1018.79
2017-05-24T00:45:43.101Z,1018.82
2017-05-24T00:46:43.781Z,1018.8
2017-05-24T00:47:44.460Z,1018.79
2017-05-24T00:48:45.135Z,1018.8
2017-05-24T00:49:45.815Z,1018.81
2017-05-24T00:50:46.493Z,1018.81
2017-05-24T00:51:47.171Z,1018.8
2017-05-24T00:52:47.848Z,1018.76
2017-05-24T00:53:48.525Z,1018.78
2017-05-24T00:54:49.197Z,1018.78
2017-05-24T00:55:49.883Z,1018.81
2017-05-24T00:56:50.550Z,1018.83
2017-05-24T00:57:51.279Z,1018.87
2017-05-24T00:58:51.953Z,1018.86
2017-05-24T00:59:52.625Z,1018.9
2017-05-24T01:00:53.309Z,1018.91
2017-05-24T01:01:53.993Z,1018.88
2017-05-24T01:02:54.667Z,1018.87
2017-05-24T01:03:55.340Z,1018.86
2017-05-24T01:04:56.008Z,1018.9
2017-05-24T01:05:56.680Z,1018.85
2017-05-24T01:06:57.365Z,1018.89
2017-05-24T01:07:58.032Z,1018.88
2017-05-24T01:08:58.706Z,1018.86
2017-05-24T01:09:59.382Z,1018.86
2017-05-24T01:11:00.073Z,1018.92
2017-05-24T01:12:00.753Z,1018.89
2017-05-24T01:13:01.451Z,1018.87
2017-05-24T01:14:02.118Z,1018.9
2017-05-24T01:15:02.797Z,1018.98
2017-05-24T01:16:03.456Z,1018.93
2017-05-24T01:17:04.138Z,1018.95
2017-05-24T01:18:04.809Z,1019
2017-05-24T01:19:05.523Z,1018.92
2017-05-24T01:20:06.192Z,1018.93
2017-05-24T01:21:06.878Z,1018.97
2017-05-24T01:22:07.561Z,1018.97
2017-05-24T01:23:08.261Z,1018.92
2017-05-24T01:24:08.940Z,1018.91
2017-05-24T01:25:09.617Z,1018.89
2017-05-24T01:26:10.282Z,1018.93
2017-05-24T01:27:10.960Z,1018.97
2017-05-24T01:28:11.633Z,1019
2017-05-24T01:29:12.317Z,1018.97
2017-05-24T01:30:12.980Z,1018.99
2017-05-24T01:31:13.653Z,1019
2017-05-24T01:32:14.320Z,1018.97
2017-05-24T01:33:14.997Z,1019.09
2017-05-24T01:34:15.666Z,1019.07
2017-05-24T01:35:16.341Z,1019.09
2017-05-24T01:36:17.016Z,1019.05
2017-05-24T01:37:17.685Z,1019.07
2017-05-24T01:38:18.356Z,1019.07
2017-05-24T01:39:19.036Z,1019.12
2017-05-24T01:40:19.710Z,1019.12
2017-05-24T01:41:20.387Z,1019.13
2017-05-24T01:42:21.053Z,1019.2
2017-05-24T01:43:21.716Z,1019.2
2017-05-24T01:44:22.385Z,1019.18
2017-05-24T01:45:23.064Z,1019.21
2017-05-24T01:46:23.738Z,1019.14
2017-05-24T01:47:24.415Z,1019.2
2017-05-24T01:48:25.092Z,1019.15
2017-05-24T01:49:25.770Z,1019.18
2017-05-24T01:50:26.442Z,1019.18
2017-05-24T01:51:27.116Z,1019.17
2017-05-24T01:52:27.792Z,1019.21
2017-05-24T01:53:28.462Z,1019.21
2017-05-24T01:54:29.126Z,1019.23
2017-05-24T01:55:29.831Z,1019.2
2017-05-24T01:56:30.500Z,1019.19
2017-05-24T01:57:31.180Z,1019.19
2017-05-24T01:58:31.851Z,1019.2
2017-05-24T01:59:32.540Z,1019.24
2017-05-24T02:00:33.322Z,1019.22
2017-05-24T02:01:34.013Z,1019.2
2017-05-24T02:02:34.675Z,1019.22
2017-05-24T02:03:35.368Z,1019.19
2017-05-24T02:04:36.044Z,1019.18
2017-05-24T02:05:36.726Z,1019.16
2017-05-24T02:06:37.399Z,1019.25
2017-05-24T02:07:38.085Z,1019.21
2017-05-24T02:08:38.766Z,1019.2
2017-05-24T02:09:39.529Z,1019.22
2017-05-24T02:10:40.211Z,1019.2
2017-05-24T02:11:40.893Z,1019.22
2017-05-24T02:12:41.563Z,1019.16
2017-05-24T02:13:42.245Z,1019.21
2017-05-24T02:14:42.935Z,1019.24
2017-05-24T02:15:43.637Z,1019.19
2017-05-24T02:16:44.297Z,1019.19
2017-05-24T02:17:44.962Z,1019.25
2017-05-24T02:18:45.640Z,1019.29
2017-05-24T02:19:46.312Z,1019.24
2017-05-24T02:20:47.002Z,1019.2
2017-05-24T02:21:47.669Z,1019.2
2017-05-24T02:22:48.342Z,1019.16
2017-05-24T02:23:49.021Z,1019.14
2017-05-24T02:24:49.692Z,1019.15
2017-05-24T02:25:50.385Z,1019.15
2017-05-24T02:26:51.053Z,1019.15
2017-05-24T02:27:51.743Z,1019.16
2017-05-24T02:28:52.420Z,1019.17
2017-05-24T02:29:53.092Z,1019.18
2017-05-24T02:30:53.768Z,1019.17
2017-05-24T02:31:54.444Z,1019.21
2017-05-24T02:32:55.128Z,1019.22
2017-05-24T02:33:55.875Z,1019.23
2017-05-24T02:34:56.543Z,1019.21
2017-05-24T02:35:57.217Z,1019.21
2017-05-24T02:36:57.903Z,1019.17
2017-05-24T02:37:58.588Z,1019.16
2017-05-24T02:38:59.273Z,1019.17
2017-05-24T02:39:59.936Z,1019.22
2017-05-24T02:41:00.621Z,1019.21
2017-05-24T02:42:01.303Z,1019.21
2017-05-24T02:43:01.979Z,1019.23
2017-05-24T02:44:02.651Z,1019.27
2017-05-24T02:45:03.332Z,1019.27
2017-05-24T02:46:04.006Z,1019.25
2017-05-24T02:47:04.673Z,1019.29
2017-05-24T02:48:05.347Z,1019.26
2017-05-24T02:49:06.035Z,1019.23
2017-05-24T02:50:06.712Z,1019.21
2017-05-24T02:51:07.398Z,1019.2
2017-05-24T02:52:08.080Z,1019.15
2017-05-24T02:53:08.760Z,1019.2
2017-05-24T02:54:09.429Z,1019.21
2017-05-24T02:55:10.100Z,1019.22
2017-05-24T02:56:10.769Z,1019.16
2017-05-24T02:57:11.448Z,1019.2
2017-05-24T02:58:12.121Z,1019.23
2017-05-24T02:59:12.795Z,1019.2
2017-05-24T03:00:13.472Z,1019.2
2017-05-24T03:01:14.154Z,1019.24
2017-05-24T03:02:14.827Z,1019.2
2017-05-24T03:03:15.515Z,1019.24
2017-05-24T03:04:16.207Z,1019.28
2017-05-24T03:05:16.882Z,1019.29
2017-05-24T03:06:17.554Z,1019.26
2017-05-24T03:07:18.229Z,1019.24
2017-05-24T03:08:18.907Z,1019.26
2017-05-24T03:09:19.593Z,1019.28
2017-05-24T03:10:20.297Z,1019.28
2017-05-24T03:11:20.975Z,1019.26
2017-05-24T03:12:21.641Z,1019.27
2017-05-24T03:13:22.339Z,1019.27
2017-05-24T03:14:23.010Z,1019.27
2017-05-24T03:15:23.681Z,1019.27
2017-05-24T03:16:24.358Z,1019.25
2017-05-24T03:17:25.031Z,1019.28
2017-05-24T03:18:25.709Z,1019.31
2017-05-24T03:19:26.370Z,1019.3
2017-05-24T03:20:27.045Z,1019.28
2017-05-24T03:21:27.716Z,1019.22
2017-05-24T03:22:28.397Z,1019.23
2017-05-24T03:23:29.064Z,1019.2
2017-05-24T03:24:29.732Z,1019.21
2017-05-24T03:25:30.412Z,1019.17
2017-05-24T03:26:31.095Z,1019.19
2017-05-24T03:27:31.781Z,1019.19
2017-05-24T03:28:32.458Z,1019.24
2017-05-24T03:29:33.133Z,1019.23
2017-05-24T03:30:33.809Z,1019.22
2017-05-24T03:31:34.487Z,1019.23
2017-05-24T03:32:35.208Z,1019.29
2017-05-24T03:33:35.906Z,1019.3
2017-05-24T03:34:36.577Z,1019.27
2017-05-24T03:35:37.262Z,1019.22
2017-05-24T03:36:37.934Z,1019.18
2017-05-24T03:37:38.620Z,1019.18
2017-05-24T03:38:39.295Z,1019.2
2017-05-24T03:39:39.965Z,1019.19
2017-05-24T03:40:40.660Z,1019.2
2017-05-24T03:41:41.332Z,1019.22
2017-05-24T03:42:42.004Z,1019.2
2017-05-24T03:43:42.688Z,1019.22
2017-05-24T03:44:43.342Z,1019.21
2017-05-24T03:45:44.011Z,1019.23
2017-05-24T03:46:44.687Z,1019.23
2017-05-24T03:47:45.357Z,1019.27
2017-05-24T03:48:46.035Z,1019.3
2017-05-24T03:49:46.704Z,1019.27
2017-05-24T03:50:47.375Z,1019.25
2017-05-24T03:51:48.045Z,1019.31
2017-05-24T03:52:48.709Z,1019.34
2017-05-24T03:53:49.414Z,1019.28
2017-05-24T03:54:50.103Z,1019.28
2017-05-24T03:55:50.783Z,1019.27
2017-05-24T03:56:51.451Z,1019.28
2017-05-24T03:57:52.124Z,1019.3
2017-05-24T03:58:52.806Z,1019.28
2017-05-24T03:59:53.474Z,1019.32
2017-05-24T04:00:54.142Z,1019.33
2017-05-24T04:01:54.820Z,1019.37
2017-05-24T04:02:55.500Z,1019.39
2017-05-24T04:03:56.172Z,1019.35
2017-05-24T04:04:56.947Z,1019.33
2017-05-24T04:05:57.621Z,1019.31
2017-05-24T04:06:58.318Z,1019.33
2017-05-24T04:07:58.997Z,1019.34
2017-05-24T04:08:59.683Z,1019.38
2017-05-24T04:10:00.443Z,1019.41
2017-05-24T04:11:01.125Z,1019.37
2017-05-24T04:12:01.799Z,1019.36
2017-05-24T04:13:02.486Z,1019.37
2017-05-24T04:14:03.160Z,1019.41
2017-05-24T04:15:03.843Z,1019.44
2017-05-24T04:16:04.563Z,1019.41
2017-05-24T04:17:05.222Z,1019.4
2017-05-24T04:18:05.910Z,1019.38
2017-05-24T04:19:06.599Z,1019.43
2017-05-24T04:20:07.306Z,1019.43
2017-05-24T04:21:07.985Z,1019.51
2017-05-24T04:22:08.673Z,1019.47
2017-05-24T04:23:09.348Z,1019.48
2017-05-24T04:24:10.040Z,1019.51
2017-05-24T04:25:10.738Z,1019.53
2017-05-24T04:26:11.416Z,1019.52
2017-05-24T04:27:12.090Z,1019.54
2017-05-24T04:28:12.778Z,1019.57
2017-05-24T04:29:13.459Z,1019.56
2017-05-24T04:30:14.137Z,1019.57
2017-05-24T04:31:14.816Z,1019.6
2017-05-24T04:32:15.500Z,1019.63
2017-05-24T04:33:16.175Z,1019.62
2017-05-24T04:34:16.853Z,1019.61
2017-05-24T04:35:17.530Z,1019.58
2017-05-24T04:36:18.207Z,1019.64
2017-05-24T04:37:18.907Z,1019.64
2017-05-24T04:38:19.579Z,1019.62
2017-05-24T04:39:20.294Z,1019.61
2017-05-24T04:40:20.987Z,1019.61
2017-05-24T04:41:21.669Z,1019.64
2017-05-24T04:42:22.348Z,1019.61
2017-05-24T04:43:23.631Z,1019.65
2017-05-24T04:44:24.292Z,1019.57
2017-05-24T04:45:24.973Z,1019.57
2017-05-24T04:46:25.686Z,1019.6
2017-05-24T04:47:26.365Z,1019.56
2017-05-24T04:48:27.046Z,1019.6
2017-05-24T04:49:27.728Z,1019.59
2017-05-24T04:50:28.402Z,1019.66
2017-05-24T04:51:29.088Z,1019.67
2017-05-24T04:52:29.763Z,1019.62
2017-05-24T04:53:30.484Z,1019.65
2017-05-24T04:54:31.183Z,1019.7
2017-05-24T04:55:31.858Z,1019.68
2017-05-24T04:56:32.523Z,1019.63
2017-05-24T04:57:33.199Z,1019.59
2017-05-24T04:58:33.872Z,1019.59
2017-05-24T04:59:34.555Z,1019.61
2017-05-24T05:00:35.250Z,1019.6
2017-05-24T05:01:35.970Z,1019.63
2017-05-24T05:02:36.642Z,1019.64
2017-05-24T05:03:37.337Z,1019.61
2017-05-24T05:04:38.016Z,1019.68
2017-05-24T05:05:38.728Z,1019.67
2017-05-24T05:06:39.403Z,1019.65
2017-05-24T05:07:40.121Z,1019.68
2017-05-24T05:08:40.801Z,1019.68
2017-05-24T05:09:41.562Z,1019.69
2017-05-24T05:10:42.257Z,1019.65
2017-05-24T05:11:42.935Z,1019.71
2017-05-24T05:12:43.615Z,1019.68
2017-05-24T05:13:44.331Z,1019.66
2017-05-24T05:14:45.028Z,1019.62
2017-05-24T05:15:45.717Z,1019.66
2017-05-24T05:16:46.406Z,1019.65
2017-05-24T05:17:47.092Z,1019.64
2017-05-24T05:18:47.760Z,1019.66
2017-05-24T05:19:48.449Z,1019.68
2017-05-24T05:20:49.133Z,1019.66
2017-05-24T05:21:49.816Z,1019.64
2017-05-24T05:22:50.492Z,1019.75
2017-05-24T05:23:51.161Z,1019.73
2017-05-24T05:24:51.853Z,1019.76
2017-05-24T05:25:52.554Z,1019.78
2017-05-24T05:26:53.230Z,1019.72
2017-05-24T05:27:53.903Z,1019.76
2017-05-24T05:28:54.586Z,1019.74
2017-05-24T05:29:55.340Z,1019.8
2017-05-24T05:30:56.030Z,1019.83
2017-05-24T05:31:56.720Z,1019.82
2017-05-24T05:32:57.413Z,1019.82
2017-05-24T05:33:58.083Z,1019.86
2017-05-24T05:34:58.760Z,1019.82
2017-05-24T05:35:59.430Z,1019.8
2017-05-24T05:37:00.109Z,1019.89
2017-05-24T05:38:00.787Z,1019.84
2017-05-24T05:39:01.473Z,1019.82
2017-05-24T05:40:02.154Z,1019.93
2017-05-24T05:41:02.837Z,1019.91
2017-05-24T05:42:03.529Z,1019.95
2017-05-24T05:43:04.230Z,1019.95
2017-05-24T05:44:04.915Z,1019.91
2017-05-24T05:45:05.592Z,1019.92
2017-05-24T05:46:06.300Z,1019.94
2017-05-24T05:47:06.979Z,1020.01
2017-05-24T05:48:07.667Z,1019.86
2017-05-24T05:49:08.357Z,1019.98
2017-05-24T05:50:09.043Z,1019.86
2017-05-24T05:51:09.712Z,1020.02
2017-05-24T05:52:10.389Z,1020
2017-05-24T05:53:11.076Z,1020.04
2017-05-24T05:54:11.775Z,1020.17
2017-05-24T05:55:12.442Z,1020.05
2017-05-24T05:56:13.118Z,1020.02
2017-05-24T05:57:13.801Z,1020.02
2017-05-24T05:58:14.632Z,1020.06
2017-05-24T05:59:15.310Z,1019.95
2017-05-24T06:00:16.014Z,1019.88
2017-05-24T06:01:16.719Z,1019.91
2017-05-24T06:02:17.416Z,1019.82
2017-05-24T06:03:18.110Z,1019.91
2017-05-24T06:04:18.828Z,1019.94
2017-05-24T06:05:19.515Z,1020
2017-05-24T06:06:20.231Z,1019.95
2017-05-24T06:07:20.917Z,1020
2017-05-24T06:08:21.584Z,1020.03
2017-05-24T06:09:22.267Z,1020.02
2017-05-24T06:10:22.947Z,1020.11
2017-05-24T06:11:23.636Z,1020.01
2017-05-24T06:12:24.324Z,1020.01
2017-05-24T06:13:24.999Z,1020.15
2017-05-24T06:14:25.692Z,1020.06
2017-05-24T06:15:26.402Z,1020.1
2017-05-24T06:16:27.054Z,1020.11
2017-05-24T06:17:27.756Z,1020.15
2017-05-24T06:18:28.450Z,1020.14
2017-05-24T06:19:29.130Z,1020.18
2017-05-24T06:20:29.832Z,1020.17
2017-05-24T06:21:30.521Z,1020.34
2017-05-24T06:22:31.214Z,1020.22
2017-05-24T06:23:31.914Z,1020.26
2017-05-24T06:24:32.593Z,1020.28
2017-05-24T06:25:33.292Z,1020.37
2017-05-24T06:26:33.979Z,1020.34
2017-05-24T06:27:34.668Z,1020.34
2017-05-24T06:28:35.354Z,1020.45
2017-05-24T06:29:36.047Z,1020.32
2017-05-24T06:30:36.723Z,1020.61
2017-05-24T06:31:37.407Z,1020.23
2017-05-24T06:32:38.138Z,1020.22
2017-05-24T06:33:38.834Z,1020.22
2017-05-24T06:34:39.551Z,1020.54
2017-05-24T06:35:40.294Z,1020.17
2017-05-24T06:36:40.963Z,1020.59
2017-05-24T06:37:41.650Z,1020.24
2017-05-24T06:38:42.351Z,1020.35
2017-05-24T06:39:43.027Z,1020.7
2017-05-24T06:40:43.711Z,1020.24
2017-05-24T06:41:44.395Z,1020.66
2017-05-24T06:42:45.262Z,1020.31
2017-05-24T06:43:46.217Z,1020.81
2017-05-24T06:44:47.311Z,1020.75
2017-05-24T06:45:48.134Z,1020.73
2017-05-24T06:46:48.833Z,1020.65
2017-05-24T06:47:49.525Z,1020.67
2017-05-24T06:48:50.238Z,1020.7
2017-05-24T06:49:50.935Z,1020.75
2017-05-24T06:50:51.650Z,1020.25
2017-05-24T06:51:52.387Z,1020.25
2017-05-24T06:52:53.074Z,1020.45
2017-05-24T06:53:53.784Z,1020.32
2017-05-24T06:54:54.486Z,1020.83
2017-05-24T06:55:55.176Z,1020.36
2017-05-24T06:56:55.867Z,1020.39
2017-05-24T06:57:56.764Z,1020.75
2017-05-24T06:58:57.481Z,1020.75
2017-05-24T06:59:58.294Z,1020.46
2017-05-24T07:00:59.056Z,1020.41
2017-05-24T07:01:59.868Z,1020.35
2017-05-24T07:03:00.557Z,1020.42
2017-05-24T07:04:01.282Z,1020.4
2017-05-24T07:05:01.953Z,1020.65
2017-05-24T07:06:02.636Z,1020.36
2017-05-24T07:07:03.334Z,1020.38
2017-05-24T07:08:04.044Z,1020.69
2017-05-24T07:09:04.731Z,1020.75
2017-05-24T07:10:05.433Z,1020.74
2017-05-24T07:11:06.152Z,1020.77
2017-05-24T07:12:06.878Z,1020.6
2017-05-24T07:13:07.602Z,1020.45
2017-05-24T07:14:08.294Z,1020.84
2017-05-24T07:15:08.978Z,1020.46
2017-05-24T07:16:09.686Z,1020.85
2017-05-24T07:17:10.368Z,1020.47
2017-05-24T07:18:11.071Z,1020.53
2017-05-24T07:19:11.837Z,1020.46
2017-05-24T07:20:12.510Z,1020.48
2017-05-24T07:21:13.211Z,1020.5
2017-05-24T07:22:13.907Z,1020.47
2017-05-24T07:23:14.599Z,1020.62
2017-05-24T07:24:15.300Z,1020.6
2017-05-24T07:25:15.982Z,1020.49
2017-05-24T07:26:16.670Z,1020.54
2017-05-24T07:27:17.373Z,1020.58
2017-05-24T07:28:18.099Z,1020.55
2017-05-24T07:29:18.783Z,1020.47
2017-05-24T07:30:19.469Z,1020.55
2017-05-24T07:31:20.161Z,1021.08
2017-05-24T07:32:20.844Z,1020.51
2017-05-24T07:33:21.531Z,1020.67
2017-05-24T07:34:22.224Z,1020.62
2017-05-24T07:35:22.921Z,1020.85
2017-05-24T07:36:23.655Z,1020.98
2017-05-24T07:37:24.355Z,1021.05
2017-05-24T07:38:25.064Z,1020.97
2017-05-24T07:39:25.774Z,1020.94
2017-05-24T07:40:26.476Z,1020.94
2017-05-24T07:41:27.182Z,1020.91
2017-05-24T07:42:27.881Z,1020.95
2017-05-24T07:43:28.640Z,1020.93
2017-05-24T07:44:29.339Z,1020.89
2017-05-24T07:45:30.042Z,1020.89
2017-05-24T07:46:30.775Z,1020.59
2017-05-24T07:47:31.547Z,1020.82
2017-05-24T07:48:32.315Z,1020.81
2017-05-24T07:49:33.081Z,1020.79
2017-05-24T07:50:34.055Z,1020.82
2017-05-24T07:51:34.826Z,1020.86
2017-05-24T07:52:35.567Z,1020.61
2017-05-24T07:53:36.468Z,1020.55
2017-05-24T07:54:37.214Z,1020.65
2017-05-24T07:55:37.982Z,1020.6
2017-05-24T07:56:38.689Z,1020.61
2017-05-24T07:57:39.466Z,1020.67
2017-05-24T07:58:40.172Z,1020.68
2017-05-24T07:59:40.871Z,1020.69
2017-05-24T08:00:41.597Z,1020.69
2017-05-24T08:01:42.432Z,1020.74
2017-05-24T08:02:43.195Z,1020.71
2017-05-24T08:03:43.907Z,1020.73
2017-05-24T08:04:44.722Z,1020.95
2017-05-24T08:05:45.386Z,1020.99
2017-05-24T08:06:46.177Z,1020.99
2017-05-24T08:07:46.965Z,1020.81
2017-05-24T08:08:47.779Z,1020.96
2017-05-24T08:09:48.542Z,1020.68
2017-05-24T08:10:49.536Z,1020.95
2017-05-24T08:11:50.330Z,1020.7
2017-05-24T08:12:51.064Z,1020.61
2017-05-24T08:13:51.815Z,1020.68
2017-05-24T08:14:52.542Z,1020.7
2017-05-24T08:15:53.287Z,1020.62
2017-05-24T08:16:54.163Z,1020.64
2017-05-24T08:17:54.968Z,1020.9
2017-05-24T08:18:55.807Z,1020.87
2017-05-24T08:19:56.491Z,1020.85
2017-05-24T08:20:57.253Z,1020.93
2017-05-24T08:21:57.974Z,1020.86
2017-05-24T08:22:58.724Z,1020.81
2017-05-24T08:23:59.481Z,1020.69
2017-05-24T08:25:00.218Z,1020.81
2017-05-24T08:26:00.995Z,1020.65
2017-05-24T08:27:01.769Z,1020.75
2017-05-24T08:28:02.804Z,1020.65
2017-05-24T08:29:03.515Z,1020.6
2017-05-24T08:30:04.227Z,1020.88
2017-05-24T08:31:04.943Z,1020.77
2017-05-24T08:32:05.627Z,1020.9
2017-05-24T08:33:06.330Z,1020.86
2017-05-24T08:34:07.033Z,1020.63
2017-05-24T08:35:07.729Z,1020.66
2017-05-24T08:36:08.408Z,1020.71
2017-05-24T08:37:09.121Z,1020.63
2017-05-24T08:38:09.832Z,1020.93
2017-05-24T08:39:10.544Z,1020.72
2017-05-24T08:40:11.240Z,1020.73
2017-05-24T08:41:11.925Z,1020.66
2017-05-24T08:42:12.640Z,1020.64
2017-05-24T08:43:13.363Z,1020.59
2017-05-24T08:44:14.064Z,1020.63
2017-05-24T08:45:14.768Z,1020.61
2017-05-24T08:46:15.474Z,1020.64
2017-05-24T08:47:16.181Z,1020.62
2017-05-24T08:48:16.867Z,1020.69
2017-05-24T08:49:17.548Z,1020.69
2017-05-24T08:50:18.235Z,1020.64
2017-05-24T08:51:18.958Z,1020.68
2017-05-24T08:52:19.681Z,1020.63
2017-05-24T08:53:20.385Z,1020.54
2017-05-24T08:54:21.066Z,1020.6
2017-05-24T08:55:21.764Z,1020.61
2017-05-24T08:56:22.447Z,1020.6
2017-05-24T08:57:23.147Z,1020.67
2017-05-24T08:58:23.853Z,1020.91
2017-05-24T08:59:24.531Z,1020.72
2017-05-24T09:00:25.208Z,1020.74
2017-05-24T09:01:25.905Z,1020.68
2017-05-24T09:02:26.581Z,1020.69
2017-05-24T09:03:27.288Z,1020.6
2017-05-24T09:04:27.972Z,1020.63
2017-05-24T09:05:28.674Z,1020.64
2017-05-24T09:06:29.368Z,1020.59
2017-05-24T09:07:30.070Z,1020.6
2017-05-24T09:08:30.768Z,1020.66
2017-05-24T09:09:31.449Z,1020.69
2017-05-24T09:10:32.149Z,1020.68
2017-05-24T09:11:32.843Z,1020.69
2017-05-24T09:12:33.535Z,1020.73
2017-05-24T09:13:34.213Z,1020.93
2017-05-24T09:14:34.919Z,1020.93
2017-05-24T09:15:35.613Z,1021.01
2017-05-24T09:16:36.293Z,1021
2017-05-24T09:17:36.992Z,1021.06
2017-05-24T09:18:37.674Z,1020.8
2017-05-24T09:19:38.365Z,1020.83
2017-05-24T09:20:39.081Z,1020.83
2017-05-24T09:21:39.760Z,1020.84
2017-05-24T09:22:40.466Z,1020.84
2017-05-24T09:23:41.146Z,1020.82
2017-05-24T09:24:41.863Z,1020.85
2017-05-24T09:25:42.540Z,1020.87
2017-05-24T09:26:43.254Z,1020.93
2017-05-24T09:27:43.953Z,1021.13
2017-05-24T09:28:44.652Z,1021.08
2017-05-24T09:29:45.339Z,1021.2
2017-05-24T09:30:46.038Z,1021.05
2017-05-24T09:31:46.773Z,1020.95
2017-05-24T09:32:47.477Z,1020.96
2017-05-24T09:33:48.172Z,1020.96
2017-05-24T09:34:48.916Z,1021.12
2017-05-24T09:35:49.605Z,1021.04
2017-05-24T09:36:50.314Z,1020.93
2017-05-24T09:37:51.048Z,1020.95
2017-05-24T09:38:51.762Z,1021.06
2017-05-24T09:39:52.469Z,1020.99
2017-05-24T09:40:53.172Z,1020.86
2017-05-24T09:41:53.873Z,1020.91
2017-05-24T09:42:54.570Z,1020.93
2017-05-24T09:43:55.279Z,1020.92
2017-05-24T09:44:56.118Z,1020.93
2017-05-24T09:45:56.852Z,1020.92
2017-05-24T09:46:57.545Z,1020.93
2017-05-24T09:47:58.235Z,1020.92
2017-05-24T09:48:58.926Z,1020.92
2017-05-24T09:49:59.615Z,1020.89
2017-05-24T09:51:00.333Z,1020.94
2017-05-24T09:52:01.024Z,1020.95
2017-05-24T09:53:01.727Z,1020.91
2017-05-24T09:54:02.436Z,1020.89
2017-05-24T09:55:03.178Z,1020.92
2017-05-24T09:56:03.875Z,1021.03
2017-05-24T09:57:04.577Z,1021.05
2017-05-24T09:58:05.270Z,1020.94
2017-05-24T09:59:05.997Z,1020.96
2017-05-24T10:00:06.681Z,1021.11
2017-05-24T10:01:07.382Z,1021.12
2017-05-24T10:02:08.092Z,1021.05
2017-05-24T10:03:08.796Z,1021.09
2017-05-24T10:04:09.516Z,1020.98
2017-05-24T10:05:10.218Z,1020.95
2017-05-24T10:06:10.908Z,1020.87
2017-05-24T10:07:11.624Z,1020.87
2017-05-24T10:08:12.309Z,1020.82
2017-05-24T10:09:12.986Z,1020.88
2017-05-24T10:10:13.671Z,1020.91
2017-05-24T10:11:14.366Z,1020.88
2017-05-24T10:12:15.066Z,1020.89
2017-05-24T10:13:15.753Z,1021.03
2017-05-24T10:14:16.440Z,1020.92
2017-05-24T10:15:17.145Z,1020.97
2017-05-24T10:16:17.841Z,1021
2017-05-24T10:17:18.540Z,1021
2017-05-24T10:18:19.227Z,1020.97
2017-05-24T10:19:19.924Z,1021.11
2017-05-24T10:20:20.625Z,1021.18
2017-05-24T10:21:21.306Z,1021.1
2017-05-24T10:22:22.009Z,1021.16
2017-05-24T10:23:22.697Z,1021.02
2017-05-24T10:24:23.369Z,1021.01
2017-05-24T10:25:24.065Z,1020.99
2017-05-24T10:26:24.748Z,1021.06
2017-05-24T10:27:25.437Z,1021.1
2017-05-24T10:28:26.117Z,1021.19
2017-05-24T10:29:26.848Z,1021.14
2017-05-24T10:30:27.531Z,1021.08
2017-05-24T10:31:28.210Z,1021.04
2017-05-24T10:32:28.935Z,1020.98
2017-05-24T10:33:29.661Z,1021.04
2017-05-24T10:34:30.312Z,1020.99
2017-05-24T10:35:30.998Z,1020.98
2017-05-24T10:36:31.691Z,1020.95
2017-05-24T10:37:32.408Z,1020.97
2017-05-24T10:38:33.099Z,1021.01
2017-05-24T10:39:33.780Z,1021.05
2017-05-24T10:40:34.465Z,1021.01
2017-05-24T10:41:35.162Z,1020.93
2017-05-24T10:42:35.873Z,1020.93
2017-05-24T10:43:36.560Z,1020.96
2017-05-24T10:44:37.257Z,1020.98
2017-05-24T10:45:37.955Z,1021.08
2017-05-24T10:46:38.651Z,1021.08
2017-05-24T10:47:39.425Z,1021.05
2017-05-24T10:48:40.084Z,1021.1
2017-05-24T10:49:40.763Z,1021.15
2017-05-24T10:50:41.449Z,1021.1
2017-05-24T10:51:42.143Z,1021.12
2017-05-24T10:52:42.846Z,1021.05
2017-05-24T10:53:43.529Z,1021.05
2017-05-24T10:54:44.219Z,1021.11
2017-05-24T10:55:44.894Z,1021.16
2017-05-24T10:56:45.569Z,1021.19
2017-05-24T10:57:46.434Z,1021.17
2017-05-24T10:58:47.134Z,1021.24
2017-05-24T10:59:47.887Z,1021.15
2017-05-24T11:00:48.534Z,1021.23
2017-05-24T11:01:49.234Z,1021.21
2017-05-24T11:02:49.913Z,1021.24
2017-05-24T11:03:50.588Z,1021.23
2017-05-24T11:04:51.309Z,1021.19
2017-05-24T11:05:52.026Z,1021.15
2017-05-24T11:06:52.710Z,1021.21
2017-05-24T11:07:53.418Z,1021.24
2017-05-24T11:08:54.108Z,1021.22
2017-05-24T11:09:54.788Z,1021.23
2017-05-24T11:10:55.464Z,1021.2
2017-05-24T11:11:56.157Z,1021.26
2017-05-24T11:12:56.894Z,1021.25
2017-05-24T11:13:57.580Z,1021.3
2017-05-24T11:14:58.282Z,1021.34
2017-05-24T11:15:58.974Z,1021.26
2017-05-24T11:16:59.717Z,1021.29
2017-05-24T11:18:00.473Z,1021.23
2017-05-24T11:19:01.166Z,1021.28
2017-05-24T11:20:01.862Z,1021.28
2017-05-24T11:21:02.589Z,1021.24
2017-05-24T11:22:03.279Z,1021.27
2017-05-24T11:23:03.964Z,1021.24
2017-05-24T11:24:04.673Z,1021.23
2017-05-24T11:25:05.379Z,1021.28
2017-05-24T11:26:06.076Z,1021.26
2017-05-24T11:27:06.760Z,1021.28
2017-05-24T11:28:07.447Z,1021.25
2017-05-24T11:29:08.147Z,1021.24
2017-05-24T11:30:08.817Z,1021.19
2017-05-24T11:31:09.523Z,1021.25
2017-05-24T11:32:10.231Z,1021.2
2017-05-24T11:33:10.956Z,1021.24
2017-05-24T11:34:11.633Z,1021.22
2017-05-24T11:35:12.309Z,1021.16
2017-05-24T11:36:13.007Z,1021.24
2017-05-24T11:37:13.699Z,1021.26
2017-05-24T11:38:14.380Z,1021.28
2017-05-24T11:39:15.082Z,1021.31
2017-05-24T11:40:15.772Z,1021.27
2017-05-24T11:41:16.454Z,1021.26
2017-05-24T11:42:17.203Z,1021.29
2017-05-24T11:43:17.880Z,1021.2
2017-05-24T11:44:18.561Z,1021.28
2017-05-24T11:45:19.274Z,1021.33
2017-05-24T11:46:19.973Z,1021.3
2017-05-24T11:47:20.676Z,1021.31
2017-05-24T11:48:21.374Z,1021.32
2017-05-24T11:49:22.055Z,1021.24
2017-05-24T11:50:22.743Z,1021.3
2017-05-24T11:51:23.423Z,1021.29
2017-05-24T11:52:24.112Z,1021.28
2017-05-24T11:53:24.809Z,1021.24
2017-05-24T11:54:25.482Z,1021.24
2017-05-24T11:55:26.182Z,1021.19
2017-05-24T11:56:26.877Z,1021.3
2017-05-24T11:57:27.565Z,1021.22
2017-05-24T11:58:28.249Z,1021.26
2017-05-24T11:59:28.943Z,1021.31
2017-05-24T12:00:29.612Z,1021.24
2017-05-24T12:01:30.308Z,1021.22
2017-05-24T12:02:30.980Z,1021.22
2017-05-24T12:03:31.681Z,1021.19
2017-05-24T12:04:32.389Z,1021.23
2017-05-24T12:05:33.080Z,1021.21
2017-05-24T12:06:33.787Z,1021.3
2017-05-24T12:07:34.721Z,1021.29
2017-05-24T12:08:35.335Z,1021.3
2017-05-24T12:09:36.051Z,1021.26
2017-05-24T12:10:36.734Z,1021.29
2017-05-24T12:11:37.421Z,1021.3
2017-05-24T12:12:38.096Z,1021.31
2017-05-24T12:13:38.788Z,1021.33
2017-05-24T12:14:39.468Z,1021.27
2017-05-24T12:15:40.163Z,1021.25
2017-05-24T12:16:40.867Z,1021.32